createdAt,value
2022-10-26T00:01:22.217Z,181.35
2022-10-26T00:03:50.305Z,183.82
2022-10-26T00:06:21.078Z,183.73
2022-10-26T00:08:49.674Z,180.40
2022-10-26T00:11:19.267Z,177.32
2022-10-26T00:13:48.254Z,177.45
2022-10-26T00:16:24.548Z,183.68
2022-10-26T00:18:52.751Z,190.13
2022-10-26T00:21:20.615Z,185.20
2022-10-26T00:23:48.675Z,187.05
2022-10-26T00:26:16.633Z,184.82
2022-10-26T00:28:44.558Z,181.88
2022-10-26T00:31:16.767Z,176.85
2022-10-26T00:33:44.778Z,186.85
2022-10-26T00:36:16.951Z,187.43
2022-10-26T00:38:53.973Z,190.70
2022-10-26T00:41:32.051Z,160.52
2022-10-26T00:44:01.107Z,170.15
2022-10-26T00:46:39.654Z,170.23
2022-10-26T00:49:17.117Z,164.05
2022-10-26T00:51:50.450Z,174.90
2022-10-26T00:54:19.870Z,165.32
2022-10-26T00:56:51.539Z,156.48
2022-10-26T00:59:21.933Z,139.57
2022-10-26T01:01:51.272Z,130.30
2022-10-26T01:04:19.811Z,135.70
2022-10-26T01:06:48.749Z,121.32
2022-10-26T01:09:18.156Z,135.60
2022-10-26T01:11:46.827Z,137.95
2022-10-26T01:14:17.963Z,143.07
2022-10-26T01:17:06.839Z,140.55
2022-10-26T01:19:59.316Z,139.13
2022-10-26T01:22:35.802Z,140.50
2022-10-26T01:25:27.621Z,143.57
2022-10-26T01:27:55.621Z,147.40
2022-10-26T01:30:46.320Z,152.52
2022-10-26T01:33:28.301Z,152.80
2022-10-26T01:36:33.935Z,156.82
2022-10-26T01:39:18.750Z,158.80
2022-10-26T01:41:50.028Z,188.27
2022-10-26T01:44:39.893Z,176.70
2022-10-26T01:47:12.406Z,188.93
2022-10-26T01:49:47.190Z,200.80
2022-10-26T01:52:15.213Z,209.60
2022-10-26T01:54:43.095Z,213.88
2022-10-26T01:57:15.368Z,213.27
2022-10-26T01:59:48.961Z,211.80
2022-10-26T02:02:38.039Z,225.05
2022-10-26T02:05:30.350Z,218.32
2022-10-26T02:08:41.145Z,233.05
2022-10-26T02:11:40.355Z,244.80
2022-10-26T02:14:19.231Z,194.73
2022-10-26T02:17:30.242Z,195.30
2022-10-26T02:20:07.506Z,199.95
2022-10-26T02:22:38.276Z,194.68
2022-10-26T02:25:19.799Z,177.15
2022-10-26T02:27:56.004Z,184.27
2022-10-26T02:30:23.954Z,187.73
2022-10-26T02:32:55.412Z,186.23
2022-10-26T02:35:31.556Z,187.27
2022-10-26T02:38:03.286Z,206.27
2022-10-26T02:40:32.916Z,203.77
2022-10-26T02:43:06.609Z,210.93
2022-10-26T02:45:58.318Z,199.07
2022-10-26T02:48:26.350Z,198.55
2022-10-26T02:51:09.218Z,197.90
2022-10-26T02:54:15.823Z,203.38
2022-10-26T02:56:54.689Z,203.18
2022-10-26T02:59:28.169Z,195.55
2022-10-26T03:01:56.971Z,185.70
2022-10-26T03:04:32.869Z,200.40
2022-10-26T03:07:01.170Z,204.93
2022-10-26T03:09:29.285Z,211.15
2022-10-26T03:11:57.267Z,210.05
2022-10-26T03:14:25.238Z,210.75
2022-10-26T03:16:53.297Z,199.73
2022-10-26T03:19:21.300Z,200.70
2022-10-26T03:21:49.222Z,206.20
2022-10-26T03:24:17.477Z,213.13
2022-10-26T03:26:45.239Z,198.68
2022-10-26T03:29:13.029Z,194.38
2022-10-26T03:31:40.944Z,206.30
2022-10-26T03:34:08.875Z,212.95
2022-10-26T03:36:36.678Z,221.93
2022-10-26T03:39:04.661Z,235.32
2022-10-26T03:41:32.552Z,234.18
2022-10-26T03:44:00.532Z,224.52
2022-10-26T03:46:28.473Z,229.25
2022-10-26T03:48:56.470Z,226.05
2022-10-26T03:51:24.417Z,228.15
2022-10-26T03:53:52.517Z,217.25
2022-10-26T03:56:20.397Z,219.90
2022-10-26T03:58:48.309Z,237.55
2022-10-26T04:01:16.332Z,219.10
2022-10-26T04:03:44.395Z,214.55
2022-10-26T04:06:12.414Z,207.10
2022-10-26T04:08:40.420Z,208.95
2022-10-26T04:11:08.348Z,205.73
2022-10-26T04:13:36.334Z,196.60
2022-10-26T04:16:04.449Z,194.57
2022-10-26T04:18:32.317Z,188.85
2022-10-26T04:21:03.381Z,179.02
2022-10-26T04:23:31.335Z,182.20
2022-10-26T04:25:59.147Z,176.35
2022-10-26T04:28:27.026Z,177.40
2022-10-26T04:30:54.899Z,176.25
2022-10-26T04:33:22.837Z,183.52
2022-10-26T04:35:50.694Z,180.82
2022-10-26T04:38:18.565Z,179.20
2022-10-26T04:40:46.414Z,196.10
2022-10-26T04:43:14.247Z,186.82
2022-10-26T04:45:42.145Z,191.93
2022-10-26T04:48:14.393Z,183.38
2022-10-26T04:50:42.410Z,176.32
2022-10-26T04:53:11.976Z,199.52
2022-10-26T04:55:39.863Z,199.55
2022-10-26T04:58:07.950Z,199.40
2022-10-26T05:00:35.948Z,197.65
2022-10-26T05:03:06.705Z,199.95
2022-10-26T05:05:36.941Z,189.73
2022-10-26T05:08:05.664Z,178.68
2022-10-26T05:10:33.756Z,188.95
2022-10-26T05:13:02.344Z,191.65
2022-10-26T05:15:30.922Z,203.57
2022-10-26T05:18:04.357Z,223.48
2022-10-26T05:20:34.585Z,221.07
2022-10-26T05:23:06.524Z,203.98
2022-10-26T05:25:38.614Z,203.23
2022-10-26T05:28:12.009Z,199.05
2022-10-26T05:30:45.135Z,185.80
2022-10-26T05:33:14.688Z,194.88
2022-10-26T05:35:42.847Z,198.50
2022-10-26T05:38:17.230Z,187.93
2022-10-26T05:40:50.102Z,185.90
2022-10-26T05:43:19.390Z,199.80
2022-10-26T05:45:47.594Z,202.23
2022-10-26T05:48:15.423Z,200.02
2022-10-26T05:50:43.407Z,195.93
2022-10-26T05:53:11.253Z,197.50
2022-10-26T05:55:39.777Z,211.07
2022-10-26T05:58:13.333Z,212.32
2022-10-26T06:01:14.476Z,223.65
2022-10-26T06:04:02.359Z,220.40
2022-10-26T06:06:45.030Z,220.68
2022-10-26T06:09:15.700Z,238.02
2022-10-26T06:11:44.073Z,250.38
2022-10-26T06:14:12.545Z,235.55
2022-10-26T06:16:40.298Z,229.48
2022-10-26T06:20:02.517Z,254.75
2022-10-26T06:23:16.479Z,256.13
2022-10-26T06:26:05.732Z,257.17
2022-10-26T06:29:12.191Z,258.20
2022-10-26T06:31:40.411Z,265.48
2022-10-26T06:34:12.496Z,281.38
2022-10-26T06:36:41.708Z,288.80
2022-10-26T06:39:12.247Z,291.77
2022-10-26T06:41:40.606Z,285.48
2022-10-26T06:44:21.966Z,305.63
2022-10-26T06:46:54.937Z,269.02
2022-10-26T06:49:32.705Z,239.35
2022-10-26T06:52:12.390Z,236.05
2022-10-26T06:54:52.254Z,244.80
2022-10-26T06:57:27.014Z,260.90
2022-10-26T07:00:00.634Z,272.92
2022-10-26T07:02:29.409Z,286.05
2022-10-26T07:04:57.620Z,301.77
2022-10-26T07:07:30.858Z,280.92
2022-10-26T07:09:58.889Z,288.65
2022-10-26T07:12:30.754Z,297.60
2022-10-26T07:15:00.956Z,268.38
2022-10-26T07:17:30.629Z,267.35
2022-10-26T07:19:58.609Z,253.15
2022-10-26T07:22:26.456Z,271.92
2022-10-26T07:24:56.966Z,266.02
2022-10-26T07:27:27.216Z,236.07
2022-10-26T07:29:55.152Z,183.30
2022-10-26T07:32:23.014Z,169.05
2022-10-26T07:34:51.013Z,186.95
2022-10-26T07:37:18.916Z,191.13
2022-10-26T07:39:46.838Z,218.95
2022-10-26T07:42:16.321Z,273.30
2022-10-26T07:44:44.407Z,251.43
2022-10-26T07:47:12.808Z,270.17
2022-10-26T07:49:40.883Z,290.77
2022-10-26T07:52:10.245Z,285.65
2022-10-26T07:54:38.566Z,271.48
2022-10-26T07:57:06.416Z,266.52
2022-10-26T07:59:35.061Z,288.30
2022-10-26T08:02:03.029Z,283.23
2022-10-26T08:04:31.042Z,283.55
2022-10-26T08:06:59.155Z,263.10
2022-10-26T08:09:27.046Z,263.15
2022-10-26T08:11:54.927Z,280.55
2022-10-26T08:14:23.375Z,290.15
2022-10-26T08:16:52.690Z,307.70
2022-10-26T08:19:21.017Z,332.17
2022-10-26T08:21:48.985Z,301.67
2022-10-26T08:24:17.137Z,259.83
2022-10-26T08:26:46.643Z,230.38
2022-10-26T08:29:15.131Z,240.82
2022-10-26T08:31:43.593Z,264.33
2022-10-26T08:34:12.790Z,287.30
2022-10-26T08:36:42.393Z,289.45
2022-10-26T08:39:10.161Z,303.40
2022-10-26T08:41:45.298Z,269.10
2022-10-26T08:44:34.122Z,316.10
2022-10-26T08:47:20.023Z,314.48
2022-10-26T08:49:59.365Z,321.98
2022-10-26T08:52:41.313Z,316.58
2022-10-26T08:55:16.541Z,323.85
2022-10-26T08:57:48.524Z,345.27
2022-10-26T09:00:21.552Z,354.42
2022-10-26T09:02:53.694Z,353.95
2022-10-26T09:05:39.398Z,367.98
2022-10-26T09:08:29.488Z,285.92
2022-10-26T09:11:34.870Z,269.67
2022-10-26T09:14:17.803Z,324.90
2022-10-26T09:17:17.953Z,369.05
2022-10-26T09:20:00.771Z,363.85
2022-10-26T09:23:32.066Z,374.50
2022-10-26T09:26:02.982Z,325.40
2022-10-26T09:28:36.533Z,299.23
2022-10-26T09:31:06.195Z,339.63
2022-10-26T09:33:39.710Z,300.00
2022-10-26T09:36:16.749Z,262.02
2022-10-26T09:38:47.494Z,305.95
2022-10-26T09:41:32.228Z,339.95
2022-10-26T09:44:30.174Z,288.45
2022-10-26T09:47:33.656Z,252.23
2022-10-26T09:50:29.472Z,230.73
2022-10-26T09:52:57.401Z,223.90
2022-10-26T09:55:25.481Z,242.00
2022-10-26T09:57:58.360Z,263.38
2022-10-26T10:00:28.976Z,298.15
2022-10-26T10:02:58.908Z,310.38
2022-10-26T10:05:50.868Z,313.02
2022-10-26T10:08:25.270Z,342.20
2022-10-26T10:10:59.475Z,360.95
2022-10-26T10:13:32.453Z,353.77
2022-10-26T10:16:20.189Z,359.45
2022-10-26T10:18:59.790Z,343.17
2022-10-26T10:21:45.870Z,346.95
2022-10-26T10:24:32.622Z,341.27
2022-10-26T10:27:18.592Z,343.98
2022-10-26T10:29:59.662Z,308.15
2022-10-26T10:32:35.808Z,321.42
2022-10-26T10:35:29.407Z,270.92
2022-10-26T10:38:04.646Z,241.07
2022-10-26T10:40:32.138Z,284.58
2022-10-26T10:43:13.498Z,291.92
2022-10-26T10:45:41.497Z,313.95
2022-10-26T10:48:22.883Z,342.52
2022-10-26T10:51:12.454Z,339.70
2022-10-26T10:53:53.664Z,303.95
2022-10-26T10:56:51.695Z,299.42
2022-10-26T11:00:03.257Z,298.20
2022-10-26T11:03:17.045Z,297.73
2022-10-26T11:06:22.318Z,276.90
2022-10-26T11:09:16.690Z,275.45
2022-10-26T11:12:02.239Z,266.20
2022-10-26T11:14:35.956Z,245.90
2022-10-26T11:17:19.965Z,249.38
2022-10-26T11:20:21.067Z,267.65
2022-10-26T11:22:56.487Z,290.23
2022-10-26T11:25:34.847Z,269.92
2022-10-26T11:28:30.827Z,254.32
2022-10-26T11:31:06.362Z,253.82
2022-10-26T11:36:26.002Z,256.20
2022-10-26T11:39:21.168Z,260.98
2022-10-26T11:42:03.873Z,253.73
2022-10-26T11:44:40.353Z,225.52
2022-10-26T11:47:17.170Z,252.32
2022-10-26T11:50:17.481Z,233.65
2022-10-26T11:52:55.020Z,240.10
2022-10-26T11:55:23.208Z,234.57
2022-10-26T11:57:53.799Z,245.02
2022-10-26T12:00:22.743Z,244.45
2022-10-26T12:03:08.449Z,247.95
2022-10-26T12:05:51.717Z,272.40
2022-10-26T12:08:27.975Z,295.80
2022-10-26T12:11:09.828Z,267.15
2022-10-26T12:13:52.530Z,262.50
2022-10-26T12:17:09.186Z,270.92
2022-10-26T12:19:45.662Z,270.90
2022-10-26T12:22:17.766Z,283.60
2022-10-26T12:24:47.449Z,290.02
2022-10-26T12:27:40.159Z,290.88
2022-10-26T12:30:19.118Z,244.90
2022-10-26T12:32:48.514Z,277.05
2022-10-26T12:35:39.154Z,262.55
2022-10-26T12:38:38.184Z,250.07
2022-10-26T12:41:20.260Z,202.93
2022-10-26T12:43:47.487Z,164.63
2022-10-26T12:46:14.323Z,168.32
2022-10-26T12:48:51.542Z,173.45
2022-10-26T12:51:26.816Z,188.10
2022-10-26T12:54:35.806Z,156.77
2022-10-26T12:57:27.357Z,141.38
2022-10-26T13:00:06.359Z,139.93
2022-10-26T13:03:26.794Z,135.98
2022-10-26T13:06:31.596Z,136.05
2022-10-26T13:09:01.929Z,146.30
2022-10-26T13:11:44.331Z,140.50
2022-10-26T13:14:33.055Z,153.95
2022-10-26T13:17:02.568Z,135.18
2022-10-26T13:19:49.370Z,140.43
2022-10-26T13:22:21.181Z,123.97
2022-10-26T13:24:53.935Z,98.35
2022-10-26T13:27:39.333Z,117.75
2022-10-26T13:30:38.645Z,146.55
2022-10-26T13:33:15.349Z,155.40
2022-10-26T13:35:50.302Z,181.15
2022-10-26T13:38:23.259Z,190.80
2022-10-26T13:40:53.395Z,185.77
2022-10-26T13:43:23.629Z,161.68
2022-10-26T13:46:04.519Z,169.70
2022-10-26T13:48:42.870Z,166.18
2022-10-26T13:51:25.396Z,182.35
2022-10-26T13:54:16.696Z,181.05
2022-10-26T13:57:03.634Z,159.23
2022-10-26T13:59:33.560Z,164.13
2022-10-26T14:02:32.486Z,190.00
2022-10-26T14:05:05.614Z,230.32
2022-10-26T14:07:56.840Z,197.93
2022-10-26T14:10:44.914Z,169.48
2022-10-26T14:13:25.340Z,131.57
2022-10-26T14:15:54.479Z,150.75
2022-10-26T14:18:30.892Z,171.77
2022-10-26T14:21:06.567Z,228.20
2022-10-26T14:23:50.050Z,194.95
2022-10-26T14:26:29.503Z,191.13
2022-10-26T14:29:02.016Z,160.23
2022-10-26T14:31:32.255Z,145.68
2022-10-26T14:34:01.639Z,153.55
2022-10-26T14:36:41.142Z,169.50
2022-10-26T14:39:31.065Z,177.73
2022-10-26T14:42:02.303Z,174.07
2022-10-26T14:44:30.670Z,147.50
2022-10-26T14:46:57.666Z,147.65
2022-10-26T14:49:28.003Z,132.70
2022-10-26T14:52:05.077Z,137.88
2022-10-26T14:54:33.822Z,144.90
2022-10-26T14:57:08.610Z,129.18
2022-10-26T14:59:35.811Z,136.27
2022-10-26T15:02:21.297Z,130.60
2022-10-26T15:05:18.954Z,126.40
2022-10-26T15:07:46.056Z,122.95
2022-10-26T15:10:37.571Z,148.38
2022-10-26T15:13:31.278Z,154.88
2022-10-26T15:16:10.309Z,145.55
2022-10-26T15:18:38.727Z,160.48
2022-10-26T15:21:26.227Z,151.88
2022-10-26T15:23:54.955Z,131.43
2022-10-26T15:26:22.711Z,110.28
2022-10-26T15:28:50.246Z,102.70
2022-10-26T15:31:17.058Z,76.63
2022-10-26T15:34:03.884Z,95.95
2022-10-26T15:36:32.109Z,118.60
2022-10-26T15:38:59.677Z,154.75
2022-10-26T15:41:32.935Z,154.95
2022-10-26T15:44:05.954Z,154.90
2022-10-26T15:46:36.014Z,174.73
2022-10-26T15:49:08.508Z,124.90
2022-10-26T15:51:35.588Z,106.05
2022-10-26T15:54:04.611Z,106.07
2022-10-26T15:56:32.384Z,103.10
2022-10-26T15:58:59.653Z,105.95
2022-10-26T16:01:29.356Z,119.60
2022-10-26T16:03:56.543Z,140.57
2022-10-26T16:06:35.036Z,123.90
2022-10-26T16:09:05.414Z,141.35
2022-10-26T16:11:32.625Z,165.52
2022-10-26T16:14:02.841Z,155.85
2022-10-26T16:16:31.459Z,135.70
2022-10-26T16:19:18.463Z,152.43
2022-10-26T16:21:45.449Z,162.60
2022-10-26T16:24:13.373Z,158.88
2022-10-26T16:26:40.333Z,147.25
2022-10-26T16:29:07.240Z,162.32
2022-10-26T16:31:34.266Z,181.88
2022-10-26T16:34:04.099Z,172.63
2022-10-26T16:36:34.258Z,184.55
2022-10-26T16:41:32.018Z,227.23
2022-10-26T16:43:59.085Z,173.88
2022-10-26T16:46:26.097Z,172.80
2022-10-26T16:48:53.030Z,173.23
2022-10-26T16:51:28.324Z,188.75
2022-10-26T16:53:57.288Z,175.43
2022-10-26T16:56:28.401Z,176.25
2022-10-26T16:58:56.636Z,196.95
2022-10-26T17:01:23.824Z,214.95
2022-10-26T17:03:52.380Z,237.00
2022-10-26T17:06:19.809Z,284.98
2022-10-26T17:08:47.474Z,269.70
2022-10-26T17:11:19.192Z,263.85
2022-10-26T17:13:47.174Z,233.10
2022-10-26T17:16:20.699Z,213.43
2022-10-26T17:18:48.489Z,163.82
2022-10-26T17:21:17.570Z,178.15
2022-10-26T17:23:44.627Z,187.35
2022-10-26T17:26:14.011Z,198.82
2022-10-26T17:28:40.942Z,208.45
2022-10-26T17:31:14.929Z,197.82
2022-10-26T17:33:44.406Z,208.32
2022-10-26T17:36:13.990Z,216.48
2022-10-26T17:38:42.584Z,237.77
2022-10-26T17:41:18.739Z,219.77
2022-10-26T17:43:47.311Z,223.13
2022-10-26T17:46:20.989Z,258.33
2022-10-26T17:48:48.015Z,297.17
2022-10-26T17:51:18.435Z,302.23
2022-10-26T17:53:50.280Z,293.38
2022-10-26T17:56:21.953Z,320.80
2022-10-26T17:58:54.652Z,337.40
2022-10-26T18:01:22.372Z,342.58
2022-10-26T18:03:49.578Z,359.70
2022-10-26T18:06:19.886Z,366.83
2022-10-26T18:08:47.346Z,331.13
2022-10-26T18:11:24.022Z,329.85
2022-10-26T18:13:55.048Z,314.05
2022-10-26T18:16:23.859Z,316.27
2022-10-26T18:19:00.645Z,306.77
2022-10-26T18:21:31.192Z,318.20
2022-10-26T18:24:03.140Z,304.17
2022-10-26T18:26:36.321Z,345.77
2022-10-26T18:29:05.144Z,371.88
2022-10-26T18:31:34.919Z,406.15
2022-10-26T18:34:04.469Z,409.13
2022-10-26T18:36:32.599Z,424.15
2022-10-26T18:38:59.941Z,441.08
2022-10-26T18:41:27.385Z,420.20
2022-10-26T18:43:59.665Z,382.45
2022-10-26T18:46:30.719Z,368.23
2022-10-26T18:48:59.258Z,349.23
2022-10-26T18:51:30.963Z,344.48
2022-10-26T18:53:59.158Z,345.25
2022-10-26T18:56:27.317Z,351.40
2022-10-26T18:58:58.816Z,362.67
2022-10-26T19:01:28.511Z,352.13
2022-10-26T19:04:02.261Z,354.55
2022-10-26T19:06:33.331Z,367.25
2022-10-26T19:09:01.134Z,348.85
2022-10-26T19:11:30.472Z,345.20
2022-10-26T19:13:57.791Z,349.73
2022-10-26T19:19:17.023Z,361.60
2022-10-26T19:21:46.239Z,365.55
2022-10-26T19:24:20.315Z,352.73
2022-10-26T19:26:48.973Z,308.02
2022-10-26T19:29:17.269Z,343.02
2022-10-26T19:31:46.328Z,380.38
2022-10-26T19:34:15.170Z,397.52
2022-10-26T19:36:45.036Z,369.05
2022-10-26T19:39:16.675Z,328.02
2022-10-26T19:41:45.251Z,317.00
2022-10-26T19:44:14.445Z,336.40
2022-10-26T19:46:43.295Z,332.42
2022-10-26T19:49:10.538Z,320.42
2022-10-26T19:51:37.472Z,352.15
2022-10-26T19:54:06.784Z,355.30
2022-10-26T19:56:36.396Z,368.90
2022-10-26T19:59:04.141Z,335.40
2022-10-26T20:01:31.369Z,345.35
2022-10-26T20:03:58.467Z,345.75
2022-10-26T20:06:25.477Z,359.45
2022-10-26T20:08:52.421Z,370.85
2022-10-26T20:11:20.492Z,369.67
2022-10-26T20:13:48.572Z,369.17
2022-10-26T20:16:17.530Z,356.10
2022-10-26T20:18:47.847Z,356.88
2022-10-26T20:21:17.613Z,363.65
2022-10-26T20:23:45.335Z,356.33
2022-10-26T20:26:19.267Z,351.50
2022-10-26T20:28:48.452Z,340.20
2022-10-26T20:31:15.667Z,318.15
2022-10-26T20:33:42.724Z,294.27
2022-10-26T20:36:09.753Z,294.38
2022-10-26T20:38:38.414Z,306.95
2022-10-26T20:41:09.250Z,291.58
2022-10-26T20:43:40.041Z,302.02
2022-10-26T20:46:22.547Z,303.10
2022-10-26T20:48:51.194Z,332.50
2022-10-26T20:51:23.601Z,346.40
2022-10-26T20:54:17.771Z,374.80
2022-10-26T20:56:45.611Z,340.02
2022-10-26T20:59:43.624Z,363.25
2022-10-26T21:02:11.045Z,369.27
2022-10-26T21:04:38.568Z,373.65
2022-10-26T21:07:05.870Z,373.00
2022-10-26T21:09:35.783Z,370.58
2022-10-26T21:12:04.637Z,398.52
2022-10-26T21:14:35.831Z,385.08
2022-10-26T21:17:02.745Z,402.10
2022-10-26T21:19:29.646Z,418.48
2022-10-26T21:21:56.553Z,421.60
2022-10-26T21:24:23.721Z,399.40
2022-10-26T21:26:50.634Z,360.90
2022-10-26T21:29:18.298Z,396.67
2022-10-26T21:31:45.305Z,408.70
2022-10-26T21:34:12.628Z,396.20
2022-10-26T21:36:39.553Z,375.55
2022-10-26T21:39:06.502Z,351.77
2022-10-26T21:41:36.778Z,365.27
2022-10-26T21:44:09.255Z,363.58
2022-10-26T21:46:40.500Z,351.88
2022-10-26T21:49:07.431Z,306.95
2022-10-26T21:51:35.219Z,315.23
2022-10-26T21:54:03.239Z,318.27
2022-10-26T21:56:30.188Z,329.40
2022-10-26T21:59:00.344Z,319.90
2022-10-26T22:01:27.489Z,329.13
2022-10-26T22:03:54.797Z,323.60
2022-10-26T22:06:22.087Z,322.38
2022-10-26T22:08:50.265Z,327.77
2022-10-26T22:11:21.346Z,333.15
2022-10-26T22:13:49.993Z,347.55
2022-10-26T22:16:25.927Z,337.08
2022-10-26T22:18:55.737Z,349.83
2022-10-26T22:21:26.749Z,376.30
2022-10-26T22:23:54.186Z,375.98
2022-10-26T22:26:24.136Z,371.55
2022-10-26T22:28:54.875Z,356.27
2022-10-26T22:31:28.610Z,342.60
2022-10-26T22:34:08.195Z,344.55
2022-10-26T22:36:35.759Z,325.92
2022-10-26T22:39:03.128Z,299.08
2022-10-26T22:41:30.209Z,290.42
2022-10-26T22:43:57.140Z,277.58
2022-10-26T22:46:26.757Z,291.92
2022-10-26T22:49:00.257Z,311.83
2022-10-26T22:51:31.337Z,330.80
2022-10-26T22:54:01.632Z,340.50
2022-10-26T22:56:30.844Z,349.05
2022-10-26T22:58:58.186Z,330.88
2022-10-26T23:01:32.639Z,329.48
2022-10-26T23:04:00.418Z,338.15
2022-10-26T23:06:30.443Z,350.63
2022-10-26T23:08:58.166Z,339.13
2022-10-26T23:11:27.463Z,339.02
2022-10-26T23:14:00.601Z,330.52
2022-10-26T23:16:29.440Z,360.70
2022-10-26T23:18:58.325Z,330.42
2022-10-26T23:23:54.807Z,317.52
2022-10-26T23:26:22.311Z,289.85
2022-10-26T23:28:50.484Z,279.80
2022-10-26T23:31:19.749Z,268.52
2022-10-26T23:33:49.918Z,277.08
2022-10-26T23:36:16.993Z,281.65
2022-10-26T23:38:43.925Z,285.00
2022-10-26T23:41:12.981Z,269.45
2022-10-26T23:43:40.581Z,295.58
2022-10-26T23:46:07.924Z,325.77
2022-10-26T23:48:34.882Z,316.38
2022-10-26T23:51:01.842Z,313.27
2022-10-26T23:53:29.180Z,317.45
2022-10-26T23:55:56.220Z,325.65
2022-10-26T23:58:23.173Z,305.73
